EXS5YL LEIB-EGNX
Flight info
| Callsign | EXS5YL |
|---|---|
| Flight time | 2h 4m |
| Altitude | 36000 |
| Route | EPAMA DCT MARTA DCT EBROX DCT UMURE N863 GIROM DCT AGN DCT SECHE DCT UVELI DCT CNA DCT TUPAR UN861 DIKRO UM184 KOTEM/N0400F240 M184 HEMEL |
| Aircraft | B738/M-SDE2E3FGHIRWXY/LB1 |
Departure
| Time | 2026-05-05 16:09 |
|---|---|
| Airport | Ibiza Airport (LEIB) |
Arrival
| Time | 2026-05-05 18:14 |
|---|---|
| Airport | East Midlands Airport (EGNX) |
| Time | Latitude | Longitude | Altitude | Speed | Heading |
|---|---|---|---|---|---|
| 2026-05-05 16:03 | 38.87788 | 1.37698 | 7 ft | 11 kts | 62° |
| 2026-05-05 16:04 | 38.87834 | 1.37809 | 7 ft | 17 kts | 62° |
| 2026-05-05 16:04 | 38.87896 | 1.37957 | 7 ft | 14 kts | 62° |
| 2026-05-05 16:04 | 38.87916 | 1.38038 | 7 ft | 9 kts | 113° |
| 2026-05-05 16:04 | 38.87871 | 1.38086 | 7 ft | 8 kts | 149° |
| 2026-05-05 16:05 | 38.87824 | 1.38126 | 8 ft | 8 kts | 125° |
| 2026-05-05 16:05 | 38.87835 | 1.38194 | 8 ft | 8 kts | 64° |
| 2026-05-05 16:05 | 38.87862 | 1.38256 | 7 ft | 8 kts | 62° |
| 2026-05-05 16:05 | 38.87886 | 1.38316 | 7 ft | 7 kts | 62° |
| 2026-05-05 16:06 | 38.87910 | 1.38375 | 9 ft | 7 kts | 62° |
| 2026-05-05 16:06 | 38.87934 | 1.38430 | 7 ft | 7 kts | 61° |
| 2026-05-05 16:06 | 38.87957 | 1.38484 | 7 ft | 7 kts | 61° |
| 2026-05-05 16:06 | 38.87979 | 1.38538 | 7 ft | 7 kts | 62° |
| 2026-05-05 16:07 | 38.88001 | 1.38591 | 8 ft | 7 kts | 66° |
| 2026-05-05 16:07 | 38.87984 | 1.38641 | 8 ft | 6 kts | 140° |
| 2026-05-05 16:07 | 38.87953 | 1.38665 | 6 ft | 0 kts | 150° |
| 2026-05-05 16:08 | 38.87946 | 1.38670 | 6 ft | 6 kts | 150° |
| 2026-05-05 16:08 | 38.87871 | 1.38698 | 2 ft | 16 kts | 203° |
| 2026-05-05 16:08 | 38.87810 | 1.38581 | 3 ft | 21 kts | 242° |
| 2026-05-05 16:09 | 38.87608 | 1.38093 | 5 ft | 104 kts | 242° |
| 2026-05-05 16:09 | 38.87146 | 1.36987 | 28 ft | 174 kts | 241° |
| 2026-05-05 16:09 | 38.86518 | 1.35495 | 580 ft | 200 kts | 242° |
| 2026-05-05 16:09 | 38.85862 | 1.33839 | 1323 ft | 216 kts | 244° |
| 2026-05-05 16:10 | 38.85187 | 1.32051 | 2137 ft | 227 kts | 244° |
| 2026-05-05 16:10 | 38.84478 | 1.30189 | 2875 ft | 238 kts | 244° |
| 2026-05-05 16:10 | 38.83775 | 1.28362 | 4061 ft | 217 kts | 244° |
| 2026-05-05 16:10 | 38.83333 | 1.26603 | 4983 ft | 207 kts | 267° |
| 2026-05-05 16:11 | 38.83629 | 1.24782 | 5406 ft | 221 kts | 293° |
| 2026-05-05 16:11 | 38.87443 | 1.20665 | 7118 ft | 249 kts | 326° |
| 2026-05-05 16:12 | 38.89180 | 1.20066 | 7525 ft | 276 kts | 355° |
| 2026-05-05 16:12 | 38.93163 | 1.20310 | 8869 ft | 293 kts | 359° |
| 2026-05-05 16:13 | 38.99499 | 1.20785 | 10506 ft | 328 kts | 358° |
| 2026-05-05 16:13 | 39.01847 | 1.20928 | 10687 ft | 351 kts | 358° |
| 2026-05-05 16:13 | 39.04354 | 1.21074 | 11108 ft | 363 kts | 358° |
| 2026-05-05 16:14 | 39.09462 | 1.21364 | 12479 ft | 371 kts | 358° |
| 2026-05-05 16:14 | 39.14687 | 1.21645 | 13775 ft | 382 kts | 357° |
| 2026-05-05 16:15 | 39.20035 | 1.21925 | 15036 ft | 388 kts | 357° |
| 2026-05-05 16:15 | 39.25517 | 1.22209 | 16223 ft | 398 kts | 356° |
| 2026-05-05 16:16 | 39.31093 | 1.22497 | 17418 ft | 406 kts | 356° |
| 2026-05-05 16:16 | 39.36798 | 1.22792 | 18503 ft | 415 kts | 356° |
| 2026-05-05 16:17 | 39.42576 | 1.23094 | 19615 ft | 418 kts | 355° |
| 2026-05-05 16:17 | 39.45507 | 1.23247 | 20158 ft | 421 kts | 355° |
| 2026-05-05 16:18 | 39.51427 | 1.23555 | 21134 ft | 428 kts | 355° |
| 2026-05-05 16:18 | 39.54399 | 1.23710 | 21632 ft | 431 kts | 355° |
| 2026-05-05 16:18 | 39.59415 | 1.23971 | 22454 ft | 435 kts | 354° |
| 2026-05-05 16:19 | 39.62438 | 1.24129 | 22920 ft | 439 kts | 354° |
| 2026-05-05 16:19 | 39.65509 | 1.24289 | 23354 ft | 442 kts | 354° |
| 2026-05-05 16:19 | 39.71725 | 1.24614 | 24102 ft | 449 kts | 354° |
| 2026-05-05 16:20 | 39.78010 | 1.24944 | 24786 ft | 456 kts | 354° |
| 2026-05-05 16:20 | 39.84379 | 1.25279 | 25446 ft | 463 kts | 354° |
| 2026-05-05 16:21 | 39.90862 | 1.25622 | 26099 ft | 469 kts | 354° |
| 2026-05-05 16:22 | 40.00760 | 1.26145 | 27040 ft | 478 kts | 354° |
| 2026-05-05 16:22 | 40.07430 | 1.26500 | 27682 ft | 483 kts | 354° |
| 2026-05-05 16:23 | 40.14170 | 1.26858 | 28254 ft | 489 kts | 354° |
| 2026-05-05 16:23 | 40.17583 | 1.27039 | 28545 ft | 492 kts | 354° |
| 2026-05-05 16:23 | 40.24441 | 1.27406 | 29122 ft | 496 kts | 354° |
| 2026-05-05 16:24 | 40.27910 | 1.27592 | 29403 ft | 499 kts | 354° |
| 2026-05-05 16:24 | 40.31400 | 1.27779 | 29691 ft | 501 kts | 354° |
| 2026-05-05 16:24 | 40.38301 | 1.27817 | 30345 ft | 491 kts | 346° |
| 2026-05-05 16:25 | 40.41691 | 1.27373 | 30782 ft | 485 kts | 344° |
| 2026-05-05 16:25 | 40.48347 | 1.26334 | 31377 ft | 485 kts | 344° |
| 2026-05-05 16:25 | 40.51732 | 1.25820 | 31536 ft | 489 kts | 345° |
| 2026-05-05 16:26 | 40.58492 | 1.24877 | 32184 ft | 487 kts | 345° |
| 2026-05-05 16:26 | 40.65249 | 1.23970 | 32808 ft | 486 kts | 345° |
| 2026-05-05 16:27 | 40.68596 | 1.23514 | 32938 ft | 490 kts | 345° |
| 2026-05-05 16:27 | 40.72020 | 1.23046 | 33169 ft | 490 kts | 346° |
| 2026-05-05 16:27 | 40.75373 | 1.22587 | 33527 ft | 488 kts | 346° |
| 2026-05-05 16:27 | 40.78765 | 1.22123 | 33881 ft | 486 kts | 346° |
| 2026-05-05 16:28 | 40.82139 | 1.21658 | 34078 ft | 487 kts | 346° |
| 2026-05-05 16:28 | 40.85492 | 1.21193 | 34261 ft | 488 kts | 346° |
| 2026-05-05 16:28 | 40.88882 | 1.20724 | 34524 ft | 487 kts | 346° |
| 2026-05-05 16:28 | 40.92220 | 1.20264 | 34888 ft | 482 kts | 346° |
| 2026-05-05 16:29 | 40.95540 | 1.19809 | 35346 ft | 476 kts | 346° |
| 2026-05-05 16:29 | 40.98851 | 1.19353 | 35693 ft | 472 kts | 346° |
| 2026-05-05 16:29 | 41.02115 | 1.18898 | 35875 ft | 473 kts | 346° |
| 2026-05-05 16:29 | 41.05379 | 1.18440 | 35909 ft | 476 kts | 346° |
| 2026-05-05 16:30 | 41.11989 | 1.17518 | 35910 ft | 477 kts | 346° |
| 2026-05-05 16:30 | 41.18605 | 1.16666 | 35926 ft | 476 kts | 348° |
| 2026-05-05 16:31 | 41.25190 | 1.16009 | 35905 ft | 475 kts | 348° |
| 2026-05-05 16:31 | 41.31742 | 1.15346 | 35915 ft | 473 kts | 348° |
| 2026-05-05 16:32 | 41.38287 | 1.14666 | 35914 ft | 471 kts | 348° |
| 2026-05-05 16:32 | 41.44856 | 1.13987 | 35892 ft | 473 kts | 348° |
| 2026-05-05 16:33 | 41.51409 | 1.13309 | 35904 ft | 475 kts | 348° |
| 2026-05-05 16:33 | 41.58007 | 1.12612 | 35910 ft | 476 kts | 348° |
| 2026-05-05 16:34 | 41.64628 | 1.11873 | 35899 ft | 479 kts | 348° |
| 2026-05-05 16:34 | 41.71267 | 1.11139 | 35933 ft | 480 kts | 349° |
| 2026-05-05 16:35 | 41.77947 | 1.10435 | 35929 ft | 482 kts | 349° |
| 2026-05-05 16:35 | 41.84635 | 1.09741 | 35957 ft | 482 kts | 349° |
| 2026-05-05 16:36 | 41.91340 | 1.09039 | 35954 ft | 482 kts | 349° |
| 2026-05-05 16:36 | 41.98044 | 1.08332 | 35958 ft | 482 kts | 349° |
| 2026-05-05 16:37 | 42.04677 | 1.07631 | 35944 ft | 481 kts | 350° |
| 2026-05-05 16:37 | 42.11375 | 1.06922 | 35947 ft | 480 kts | 350° |
| 2026-05-05 16:38 | 42.18016 | 1.06210 | 35932 ft | 479 kts | 350° |
| 2026-05-05 16:38 | 42.24652 | 1.05479 | 35913 ft | 479 kts | 350° |
| 2026-05-05 16:39 | 42.31287 | 1.04747 | 35926 ft | 478 kts | 350° |
| 2026-05-05 16:39 | 42.37929 | 1.04015 | 35936 ft | 478 kts | 350° |
| 2026-05-05 16:40 | 42.44548 | 1.03285 | 35927 ft | 478 kts | 350° |
| 2026-05-05 16:40 | 42.51177 | 1.02565 | 35933 ft | 478 kts | 350° |
| 2026-05-05 16:41 | 42.57811 | 1.01850 | 35909 ft | 477 kts | 351° |
| 2026-05-05 16:41 | 42.64402 | 1.01133 | 35940 ft | 477 kts | 351° |
| 2026-05-05 16:42 | 42.71045 | 1.00405 | 35962 ft | 478 kts | 351° |
| 2026-05-05 16:42 | 42.77683 | 0.99680 | 35968 ft | 479 kts | 351° |
| 2026-05-05 16:43 | 42.84302 | 0.98953 | 35975 ft | 480 kts | 351° |
| 2026-05-05 16:43 | 42.91008 | 0.98213 | 35968 ft | 481 kts | 351° |
| 2026-05-05 16:44 | 42.97680 | 0.97483 | 35970 ft | 482 kts | 351° |
| 2026-05-05 16:44 | 43.04372 | 0.96748 | 35983 ft | 482 kts | 351° |
| 2026-05-05 16:45 | 43.11073 | 0.96007 | 35955 ft | 485 kts | 351° |
| 2026-05-05 16:45 | 43.17782 | 0.95265 | 35969 ft | 484 kts | 351° |
| 2026-05-05 16:46 | 43.24473 | 0.94523 | 35973 ft | 483 kts | 351° |
| 2026-05-05 16:46 | 43.31157 | 0.93780 | 35955 ft | 482 kts | 352° |
| 2026-05-05 16:47 | 43.37867 | 0.93032 | 35960 ft | 481 kts | 352° |
| 2026-05-05 16:47 | 43.44527 | 0.92288 | 35958 ft | 480 kts | 352° |
| 2026-05-05 16:48 | 43.51188 | 0.91543 | 35964 ft | 479 kts | 352° |
| 2026-05-05 16:48 | 43.57815 | 0.90799 | 35953 ft | 479 kts | 352° |
| 2026-05-05 16:49 | 43.64428 | 0.90055 | 35957 ft | 479 kts | 352° |
| 2026-05-05 16:49 | 43.71081 | 0.89305 | 35950 ft | 478 kts | 352° |
| 2026-05-05 16:50 | 43.77715 | 0.88556 | 35946 ft | 479 kts | 352° |
| 2026-05-05 16:50 | 43.84334 | 0.87807 | 35949 ft | 480 kts | 352° |
| 2026-05-05 16:51 | 43.90870 | 0.86052 | 35949 ft | 472 kts | 335° |
| 2026-05-05 16:51 | 43.96809 | 0.82335 | 35971 ft | 469 kts | 330° |
| 2026-05-05 16:52 | 44.02698 | 0.78399 | 35969 ft | 470 kts | 330° |
| 2026-05-05 16:52 | 44.08614 | 0.74511 | 35950 ft | 472 kts | 330° |
| 2026-05-05 16:53 | 44.14593 | 0.70628 | 35943 ft | 473 kts | 331° |
| 2026-05-05 16:53 | 44.20558 | 0.66757 | 35938 ft | 474 kts | 331° |
| 2026-05-05 16:54 | 44.26523 | 0.62874 | 35944 ft | 474 kts | 331° |
| 2026-05-05 16:54 | 44.32508 | 0.58966 | 35942 ft | 474 kts | 331° |
| 2026-05-05 16:55 | 44.38472 | 0.55062 | 35940 ft | 474 kts | 331° |
| 2026-05-05 16:55 | 44.44467 | 0.51130 | 35940 ft | 473 kts | 330° |
| 2026-05-05 16:56 | 44.50411 | 0.47199 | 35930 ft | 473 kts | 330° |
| 2026-05-05 16:56 | 44.56343 | 0.43255 | 35934 ft | 473 kts | 330° |
| 2026-05-05 16:57 | 44.62306 | 0.39282 | 35948 ft | 472 kts | 330° |
| 2026-05-05 16:57 | 44.68232 | 0.35328 | 35934 ft | 472 kts | 330° |
| 2026-05-05 16:58 | 44.74157 | 0.31366 | 35936 ft | 472 kts | 330° |
| 2026-05-05 16:58 | 44.79112 | 0.28045 | 35947 ft | 472 kts | 330° |
| 2026-05-05 16:59 | 44.85043 | 0.24063 | 35931 ft | 472 kts | 330° |
| 2026-05-05 16:59 | 44.90959 | 0.20080 | 35941 ft | 472 kts | 330° |
| 2026-05-05 17:00 | 44.96921 | 0.16057 | 35940 ft | 473 kts | 330° |
| 2026-05-05 17:00 | 45.02857 | 0.12044 | 35932 ft | 473 kts | 330° |
| 2026-05-05 17:01 | 45.08781 | 0.08032 | 35930 ft | 473 kts | 330° |
| 2026-05-05 17:01 | 45.14747 | 0.03984 | 35928 ft | 473 kts | 330° |
| 2026-05-05 17:02 | 45.20681 | -0.00052 | 35919 ft | 473 kts | 330° |
| 2026-05-05 17:02 | 45.26600 | -0.04088 | 35932 ft | 473 kts | 331° |
| 2026-05-05 17:03 | 45.32525 | -0.08137 | 35924 ft | 474 kts | 330° |
| 2026-05-05 17:03 | 45.38463 | -0.12206 | 35919 ft | 474 kts | 331° |
| 2026-05-05 17:04 | 45.44426 | -0.16301 | 35915 ft | 474 kts | 331° |
| 2026-05-05 17:04 | 45.50342 | -0.20373 | 35908 ft | 474 kts | 331° |
| 2026-05-05 17:05 | 45.56266 | -0.24462 | 35913 ft | 474 kts | 331° |
| 2026-05-05 17:05 | 45.62190 | -0.28558 | 35907 ft | 475 kts | 331° |
| 2026-05-05 17:06 | 45.68251 | -0.32419 | 35862 ft | 479 kts | 338° |
| 2026-05-05 17:06 | 45.71434 | -0.33906 | 35967 ft | 478 kts | 340° |
| 2026-05-05 17:06 | 45.74607 | -0.35284 | 35909 ft | 480 kts | 341° |
| 2026-05-05 17:07 | 45.81004 | -0.38025 | 35912 ft | 480 kts | 340° |
| 2026-05-05 17:07 | 45.87419 | -0.40866 | 35918 ft | 480 kts | 340° |
| 2026-05-05 17:08 | 45.93776 | -0.43746 | 35919 ft | 480 kts | 340° |
| 2026-05-05 17:08 | 46.00144 | -0.46652 | 35890 ft | 480 kts | 340° |
| 2026-05-05 17:09 | 46.06501 | -0.49555 | 35897 ft | 479 kts | 340° |
| 2026-05-05 17:09 | 46.12856 | -0.52462 | 35882 ft | 479 kts | 340° |
| 2026-05-05 17:10 | 46.19235 | -0.55386 | 35897 ft | 478 kts | 340° |
| 2026-05-05 17:10 | 46.25568 | -0.58296 | 35879 ft | 478 kts | 340° |
| 2026-05-05 17:11 | 46.31897 | -0.61213 | 35889 ft | 477 kts | 340° |
| 2026-05-05 17:11 | 46.38202 | -0.64124 | 35882 ft | 477 kts | 340° |
| 2026-05-05 17:12 | 46.44580 | -0.66725 | 35832 ft | 479 kts | 350° |
| 2026-05-05 17:12 | 46.47905 | -0.67356 | 35944 ft | 477 kts | 352° |
| 2026-05-05 17:12 | 46.51185 | -0.67873 | 35887 ft | 478 kts | 353° |
| 2026-05-05 17:13 | 46.57837 | -0.68867 | 35883 ft | 478 kts | 353° |
| 2026-05-05 17:13 | 46.64437 | -0.69913 | 35880 ft | 478 kts | 352° |
| 2026-05-05 17:14 | 46.71039 | -0.71016 | 35878 ft | 477 kts | 352° |
| 2026-05-05 17:14 | 46.77633 | -0.72135 | 35868 ft | 477 kts | 352° |
| 2026-05-05 17:15 | 46.84245 | -0.73259 | 35871 ft | 476 kts | 352° |
| 2026-05-05 17:15 | 46.90802 | -0.74374 | 35868 ft | 475 kts | 352° |
| 2026-05-05 17:16 | 46.97356 | -0.75490 | 35871 ft | 475 kts | 352° |
| 2026-05-05 17:16 | 47.03939 | -0.76613 | 35879 ft | 474 kts | 352° |
| 2026-05-05 17:17 | 47.10483 | -0.77733 | 35875 ft | 474 kts | 352° |
| 2026-05-05 17:17 | 47.17020 | -0.78855 | 35875 ft | 473 kts | 352° |
| 2026-05-05 17:18 | 47.23549 | -0.79978 | 35871 ft | 472 kts | 352° |
| 2026-05-05 17:18 | 47.30100 | -0.81107 | 35879 ft | 472 kts | 353° |
| 2026-05-05 17:19 | 47.36617 | -0.82234 | 35878 ft | 471 kts | 353° |
| 2026-05-05 17:19 | 47.43159 | -0.83367 | 35878 ft | 471 kts | 353° |
| 2026-05-05 17:20 | 47.49669 | -0.84498 | 35896 ft | 471 kts | 353° |
| 2026-05-05 17:20 | 47.56174 | -0.85591 | 35875 ft | 471 kts | 354° |
| 2026-05-05 17:21 | 47.62696 | -0.86396 | 35900 ft | 470 kts | 355° |
| 2026-05-05 17:22 | 47.72495 | -0.87506 | 35898 ft | 470 kts | 355° |
| 2026-05-05 17:22 | 47.79002 | -0.88285 | 35880 ft | 470 kts | 355° |
| 2026-05-05 17:23 | 47.85528 | -0.89085 | 35902 ft | 470 kts | 355° |
| 2026-05-05 17:23 | 47.92053 | -0.89891 | 35885 ft | 470 kts | 355° |
| 2026-05-05 17:24 | 47.98549 | -0.90694 | 35879 ft | 470 kts | 355° |
| 2026-05-05 17:24 | 48.05048 | -0.91498 | 35893 ft | 469 kts | 355° |
| 2026-05-05 17:25 | 48.11573 | -0.92308 | 35886 ft | 469 kts | 355° |
| 2026-05-05 17:25 | 48.18060 | -0.93114 | 35886 ft | 468 kts | 355° |
| 2026-05-05 17:26 | 48.24543 | -0.93923 | 35899 ft | 468 kts | 355° |
| 2026-05-05 17:26 | 48.31042 | -0.94735 | 35899 ft | 468 kts | 355° |
| 2026-05-05 17:27 | 48.37519 | -0.95546 | 35908 ft | 468 kts | 355° |
| 2026-05-05 17:27 | 48.44023 | -0.96364 | 35898 ft | 469 kts | 355° |
| 2026-05-05 17:28 | 48.50549 | -0.97186 | 35906 ft | 469 kts | 355° |
| 2026-05-05 17:28 | 48.57040 | -0.98005 | 35903 ft | 469 kts | 355° |
| 2026-05-05 17:29 | 48.63554 | -0.98830 | 35910 ft | 469 kts | 355° |
| 2026-05-05 17:29 | 48.70050 | -0.99655 | 35911 ft | 469 kts | 355° |
| 2026-05-05 17:30 | 48.76528 | -1.00479 | 35911 ft | 469 kts | 355° |
| 2026-05-05 17:30 | 48.83004 | -1.01306 | 35903 ft | 468 kts | 355° |
| 2026-05-05 17:31 | 48.89506 | -1.02137 | 35914 ft | 467 kts | 355° |
| 2026-05-05 17:31 | 48.95960 | -1.02965 | 35916 ft | 466 kts | 355° |
| 2026-05-05 17:32 | 49.02412 | -1.03795 | 35910 ft | 465 kts | 355° |
| 2026-05-05 17:32 | 49.08848 | -1.04625 | 35992 ft | 464 kts | 356° |
| 2026-05-05 17:33 | 49.15255 | -1.05455 | 35908 ft | 457 kts | 356° |
| 2026-05-05 17:33 | 49.21539 | -1.06269 | 35916 ft | 452 kts | 356° |
| 2026-05-05 17:34 | 49.27791 | -1.07080 | 35926 ft | 450 kts | 356° |
| 2026-05-05 17:34 | 49.34027 | -1.07892 | 35917 ft | 451 kts | 356° |
| 2026-05-05 17:35 | 49.40309 | -1.08712 | 35925 ft | 451 kts | 356° |
| 2026-05-05 17:35 | 49.46581 | -1.09533 | 35937 ft | 453 kts | 356° |
| 2026-05-05 17:36 | 49.52860 | -1.10357 | 35925 ft | 455 kts | 356° |
| 2026-05-05 17:36 | 49.59187 | -1.11061 | 35909 ft | 457 kts | 2° |
| 2026-05-05 17:37 | 49.65494 | -1.10263 | 35982 ft | 456 kts | 7° |
| 2026-05-05 17:37 | 49.71825 | -1.09262 | 35957 ft | 458 kts | 6° |
| 2026-05-05 17:38 | 49.78174 | -1.08364 | 35943 ft | 458 kts | 6° |
| 2026-05-05 17:38 | 49.83494 | -1.07640 | 35928 ft | 458 kts | 5° |
| 2026-05-05 17:39 | 49.89850 | -1.06782 | 35916 ft | 458 kts | 5° |
| 2026-05-05 17:39 | 49.96177 | -1.05923 | 35940 ft | 456 kts | 5° |
| 2026-05-05 17:40 | 50.02460 | -1.05062 | 35912 ft | 455 kts | 5° |
| 2026-05-05 17:40 | 50.08749 | -1.04180 | 35932 ft | 453 kts | 5° |
| 2026-05-05 17:41 | 50.15036 | -1.03294 | 35921 ft | 452 kts | 5° |
| 2026-05-05 17:41 | 50.21298 | -1.02411 | 35922 ft | 451 kts | 5° |
| 2026-05-05 17:42 | 50.27556 | -1.01528 | 35926 ft | 450 kts | 5° |
| 2026-05-05 17:42 | 50.33769 | -1.00649 | 35915 ft | 450 kts | 5° |
| 2026-05-05 17:43 | 50.40029 | -0.99772 | 35926 ft | 450 kts | 5° |
| 2026-05-05 17:43 | 50.46258 | -0.98902 | 35924 ft | 451 kts | 5° |
| 2026-05-05 17:44 | 50.52516 | -0.98025 | 35923 ft | 451 kts | 5° |
| 2026-05-05 17:44 | 50.58756 | -0.97146 | 35928 ft | 452 kts | 5° |
| 2026-05-05 17:45 | 50.65052 | -0.96257 | 35921 ft | 453 kts | 5° |
| 2026-05-05 17:45 | 50.71310 | -0.95371 | 35915 ft | 454 kts | 5° |
| 2026-05-05 17:46 | 50.77592 | -0.94450 | 35927 ft | 454 kts | 5° |
| 2026-05-05 17:46 | 50.83868 | -0.93010 | 35888 ft | 456 kts | 17° |
| 2026-05-05 17:46 | 50.86866 | -0.91513 | 36007 ft | 453 kts | 18° |
| 2026-05-05 17:47 | 50.89853 | -0.89933 | 35563 ft | 462 kts | 19° |
| 2026-05-05 17:47 | 50.92898 | -0.88296 | 35276 ft | 456 kts | 19° |
| 2026-05-05 17:47 | 50.95902 | -0.86687 | 34621 ft | 457 kts | 18° |
| 2026-05-05 17:47 | 50.98902 | -0.85096 | 34434 ft | 447 kts | 18° |
| 2026-05-05 17:48 | 51.01874 | -0.83534 | 33798 ft | 449 kts | 18° |
| 2026-05-05 17:48 | 51.04788 | -0.82012 | 33437 ft | 442 kts | 18° |
| 2026-05-05 17:48 | 51.07712 | -0.80489 | 33009 ft | 437 kts | 18° |
| 2026-05-05 17:48 | 51.10609 | -0.78981 | 32478 ft | 436 kts | 18° |
| 2026-05-05 17:49 | 51.13460 | -0.77496 | 32219 ft | 428 kts | 18° |
| 2026-05-05 17:49 | 51.16285 | -0.76021 | 31674 ft | 428 kts | 18° |
| 2026-05-05 17:49 | 51.19082 | -0.74560 | 31337 ft | 423 kts | 18° |
| 2026-05-05 17:49 | 51.21873 | -0.73099 | 30905 ft | 421 kts | 18° |
| 2026-05-05 17:50 | 51.24657 | -0.71639 | 30515 ft | 418 kts | 18° |
| 2026-05-05 17:50 | 51.27419 | -0.70189 | 30115 ft | 416 kts | 18° |
| 2026-05-05 17:50 | 51.30141 | -0.68758 | 29677 ft | 414 kts | 18° |
| 2026-05-05 17:50 | 51.32879 | -0.67316 | 29225 ft | 412 kts | 18° |
| 2026-05-05 17:51 | 51.35600 | -0.65882 | 28825 ft | 409 kts | 18° |
| 2026-05-05 17:51 | 51.38267 | -0.64475 | 28395 ft | 407 kts | 18° |
| 2026-05-05 17:51 | 51.40970 | -0.63046 | 28011 ft | 403 kts | 18° |
| 2026-05-05 17:51 | 51.43636 | -0.61636 | 27595 ft | 401 kts | 18° |
| 2026-05-05 17:52 | 51.46281 | -0.60235 | 27175 ft | 400 kts | 18° |
| 2026-05-05 17:52 | 51.48904 | -0.58844 | 26791 ft | 397 kts | 18° |
| 2026-05-05 17:52 | 51.51545 | -0.57442 | 26389 ft | 396 kts | 18° |
| 2026-05-05 17:52 | 51.54148 | -0.56058 | 25992 ft | 394 kts | 17° |
| 2026-05-05 17:53 | 51.56722 | -0.54688 | 25609 ft | 392 kts | 17° |
| 2026-05-05 17:53 | 51.59333 | -0.53297 | 25213 ft | 390 kts | 17° |
| 2026-05-05 17:53 | 51.61877 | -0.51939 | 24825 ft | 388 kts | 17° |
| 2026-05-05 17:53 | 51.64442 | -0.50569 | 24437 ft | 386 kts | 17° |
| 2026-05-05 17:54 | 51.66960 | -0.49222 | 24053 ft | 383 kts | 17° |
| 2026-05-05 17:54 | 51.69491 | -0.47867 | 23743 ft | 381 kts | 17° |
| 2026-05-05 17:54 | 51.72009 | -0.46518 | 23317 ft | 379 kts | 17° |
| 2026-05-05 17:54 | 51.74479 | -0.45193 | 22886 ft | 376 kts | 17° |
| 2026-05-05 17:55 | 51.76973 | -0.43854 | 22432 ft | 373 kts | 17° |
| 2026-05-05 17:55 | 51.79462 | -0.42985 | 21965 ft | 368 kts | 359° |
| 2026-05-05 17:55 | 51.81963 | -0.43508 | 21766 ft | 356 kts | 342° |
| 2026-05-05 17:55 | 51.84206 | -0.45194 | 21218 ft | 354 kts | 327° |
| 2026-05-05 17:56 | 51.86273 | -0.47238 | 20798 ft | 352 kts | 327° |
| 2026-05-05 17:56 | 51.88370 | -0.49335 | 20435 ft | 350 kts | 327° |
| 2026-05-05 17:56 | 51.90454 | -0.51413 | 19922 ft | 352 kts | 327° |
| 2026-05-05 17:56 | 51.92520 | -0.53461 | 19550 ft | 350 kts | 327° |
| 2026-05-05 17:57 | 51.94613 | -0.55527 | 19108 ft | 350 kts | 327° |
| 2026-05-05 17:57 | 51.96694 | -0.57574 | 18691 ft | 349 kts | 328° |
| 2026-05-05 17:57 | 51.98753 | -0.59595 | 18279 ft | 348 kts | 328° |
| 2026-05-05 17:57 | 52.00809 | -0.61612 | 17798 ft | 340 kts | 328° |
| 2026-05-05 17:58 | 52.02801 | -0.63568 | 17365 ft | 332 kts | 328° |
| 2026-05-05 17:58 | 52.04763 | -0.65494 | 16960 ft | 324 kts | 327° |
| 2026-05-05 17:58 | 52.06675 | -0.67375 | 16563 ft | 316 kts | 327° |
| 2026-05-05 17:58 | 52.08512 | -0.69183 | 16184 ft | 308 kts | 327° |
| 2026-05-05 17:59 | 52.10341 | -0.70985 | 15828 ft | 302 kts | 327° |
| 2026-05-05 17:59 | 52.12123 | -0.72744 | 15491 ft | 302 kts | 327° |
| 2026-05-05 17:59 | 52.13933 | -0.74533 | 15120 ft | 303 kts | 327° |
| 2026-05-05 17:59 | 52.15737 | -0.76317 | 14760 ft | 303 kts | 327° |
| 2026-05-05 18:00 | 52.17544 | -0.78105 | 14402 ft | 303 kts | 327° |
| 2026-05-05 18:00 | 52.19333 | -0.79877 | 14042 ft | 304 kts | 327° |
| 2026-05-05 18:00 | 52.21147 | -0.81674 | 13646 ft | 300 kts | 327° |
| 2026-05-05 18:00 | 52.22915 | -0.83427 | 13243 ft | 293 kts | 327° |
| 2026-05-05 18:01 | 52.24624 | -0.85123 | 12889 ft | 287 kts | 327° |
| 2026-05-05 18:01 | 52.26318 | -0.86802 | 12543 ft | 281 kts | 327° |
| 2026-05-05 18:01 | 52.27977 | -0.88443 | 12219 ft | 280 kts | 327° |
| 2026-05-05 18:01 | 52.29648 | -0.90098 | 11877 ft | 280 kts | 327° |
| 2026-05-05 18:02 | 52.31329 | -0.91764 | 11543 ft | 280 kts | 327° |
| 2026-05-05 18:02 | 52.32974 | -0.93396 | 11193 ft | 278 kts | 327° |
| 2026-05-05 18:02 | 52.34623 | -0.95033 | 10858 ft | 272 kts | 327° |
| 2026-05-05 18:02 | 52.36220 | -0.96619 | 10543 ft | 265 kts | 327° |
| 2026-05-05 18:03 | 52.37761 | -0.98151 | 10229 ft | 259 kts | 327° |
| 2026-05-05 18:03 | 52.39278 | -0.99661 | 9909 ft | 254 kts | 327° |
| 2026-05-05 18:03 | 52.40779 | -1.01154 | 9597 ft | 248 kts | 328° |
| 2026-05-05 18:03 | 52.42316 | -1.02358 | 9237 ft | 245 kts | 337° |
| 2026-05-05 18:04 | 52.43890 | -1.03329 | 9043 ft | 238 kts | 338° |
| 2026-05-05 18:04 | 52.45457 | -1.04295 | 8674 ft | 241 kts | 338° |
| 2026-05-05 18:04 | 52.47024 | -1.05281 | 8428 ft | 244 kts | 338° |
| 2026-05-05 18:04 | 52.48628 | -1.06304 | 8127 ft | 247 kts | 337° |
| 2026-05-05 18:05 | 52.50276 | -1.07029 | 7802 ft | 250 kts | 353° |
| 2026-05-05 18:05 | 52.51999 | -1.07177 | 7637 ft | 245 kts | 357° |
| 2026-05-05 18:05 | 52.53707 | -1.07212 | 7306 ft | 242 kts | 358° |
| 2026-05-05 18:05 | 52.55349 | -1.07236 | 7077 ft | 235 kts | 358° |
| 2026-05-05 18:06 | 52.56976 | -1.07269 | 6802 ft | 230 kts | 359° |
| 2026-05-05 18:06 | 52.58038 | -1.07296 | 6656 ft | 229 kts | 358° |
| 2026-05-05 18:06 | 52.60159 | -1.07362 | 6310 ft | 230 kts | 359° |
| 2026-05-05 18:06 | 52.61762 | -1.07418 | 6070 ft | 229 kts | 359° |
| 2026-05-05 18:07 | 52.63344 | -1.07478 | 5800 ft | 229 kts | 359° |
| 2026-05-05 18:07 | 52.64926 | -1.07540 | 5572 ft | 223 kts | 359° |
| 2026-05-05 18:07 | 52.66444 | -1.07601 | 5347 ft | 216 kts | 359° |
| 2026-05-05 18:07 | 52.67934 | -1.07664 | 5099 ft | 208 kts | 359° |
| 2026-05-05 18:08 | 52.69361 | -1.07724 | 4866 ft | 200 kts | 359° |
| 2026-05-05 18:08 | 52.70693 | -1.07781 | 4643 ft | 188 kts | 359° |
| 2026-05-05 18:08 | 52.71980 | -1.07837 | 4431 ft | 180 kts | 359° |
| 2026-05-05 18:08 | 52.73236 | -1.07890 | 4229 ft | 178 kts | 359° |
| 2026-05-05 18:09 | 52.74464 | -1.07943 | 4039 ft | 177 kts | 359° |
| 2026-05-05 18:09 | 52.75679 | -1.07998 | 3856 ft | 172 kts | 360° |
| 2026-05-05 18:09 | 52.76874 | -1.08050 | 3648 ft | 171 kts | 360° |
| 2026-05-05 18:09 | 52.78050 | -1.08100 | 3489 ft | 171 kts | 0° |
| 2026-05-05 18:10 | 52.79254 | -1.08151 | 3286 ft | 173 kts | 0° |
| 2026-05-05 18:10 | 52.80447 | -1.08203 | 3107 ft | 172 kts | 0° |
| 2026-05-05 18:10 | 52.81653 | -1.08320 | 2882 ft | 173 kts | 348° |
| 2026-05-05 18:10 | 52.82567 | -1.09512 | 2677 ft | 177 kts | 298° |
| 2026-05-05 18:11 | 52.82948 | -1.11510 | 2562 ft | 185 kts | 294° |
| 2026-05-05 18:11 | 52.83314 | -1.13578 | 2275 ft | 191 kts | 281° |
| 2026-05-05 18:11 | 52.83410 | -1.15739 | 2086 ft | 188 kts | 276° |
| 2026-05-05 18:11 | 52.83403 | -1.17851 | 1959 ft | 177 kts | 271° |
| 2026-05-05 18:12 | 52.83361 | -1.19835 | 1696 ft | 163 kts | 271° |
| 2026-05-05 18:12 | 52.83323 | -1.21641 | 1506 ft | 157 kts | 272° |
| 2026-05-05 18:12 | 52.83289 | -1.23411 | 1279 ft | 154 kts | 272° |
| 2026-05-05 18:12 | 52.83252 | -1.25169 | 1047 ft | 150 kts | 272° |
| 2026-05-05 18:13 | 52.83205 | -1.26864 | 770 ft | 148 kts | 271° |
| 2026-05-05 18:13 | 52.83174 | -1.28563 | 576 ft | 148 kts | 272° |
| 2026-05-05 18:13 | 52.83145 | -1.30252 | 369 ft | 147 kts | 272° |
| 2026-05-05 18:13 | 52.83121 | -1.31873 | 306 ft | 124 kts | 269° |
| 2026-05-05 18:14 | 52.83100 | -1.32999 | 303 ft | 71 kts | 268° |
| 2026-05-05 18:14 | 52.83088 | -1.33481 | 307 ft | 22 kts | 268° |
| 2026-05-05 18:14 | 52.83085 | -1.33663 | 307 ft | 11 kts | 267° |
| 2026-05-05 18:14 | 52.83031 | -1.33729 | 306 ft | 11 kts | 182° |
| 2026-05-05 18:15 | 52.82956 | -1.33727 | 304 ft | 10 kts | 178° |
| 2026-05-05 18:15 | 52.82915 | -1.33643 | 304 ft | 11 kts | 94° |
| 2026-05-05 18:15 | 52.82918 | -1.33522 | 305 ft | 10 kts | 88° |
| 2026-05-05 18:15 | 52.82920 | -1.33407 | 306 ft | 10 kts | 88° |
| 2026-05-05 18:16 | 52.82922 | -1.33292 | 302 ft | 11 kts | 88° |
| 2026-05-05 18:16 | 52.82923 | -1.33228 | 303 ft | 5 kts | 89° |
| 2026-05-05 18:16 | 52.82899 | -1.33173 | 300 ft | 7 kts | 152° |
| 2026-05-05 18:16 | 52.82850 | -1.33163 | 300 ft | 7 kts | 179° |
| 2026-05-05 18:17 | 52.82804 | -1.33151 | 302 ft | 7 kts | 142° |
| 2026-05-05 18:17 | 52.82791 | -1.33076 | 300 ft | 7 kts | 89° |
| 2026-05-05 18:17 | 52.82793 | -1.33000 | 300 ft | 4 kts | 88° |
| 2026-05-05 18:17 | 52.82793 | -1.32968 | 300 ft | 2 kts | 94° |
| 2026-05-05 18:18 | 52.82783 | -1.32947 | 302 ft | 2 kts | 139° |
| 2026-05-05 18:18 | 52.82769 | -1.32939 | 301 ft | 2 kts | 168° |
| 2026-05-05 18:18 | 52.82755 | -1.32936 | 303 ft | 2 kts | 175° |
| 2026-05-05 18:18 | 52.82740 | -1.32935 | 303 ft | 2 kts | 179° |
| 2026-05-05 18:19 | 52.82728 | -1.32935 | 302 ft | 0 kts | 178° |